Pagrindinis puslapis
METAR-TAF:

METAR-TAF

Oro uostai :

Karalienės Alijos tarptautinis oro uostas

Amanas-Queen Alia, Jordanija

platuma: 31-40N, ilguma: 035-58E, Aukštis: 721 m

Dabartinis oras

Ataskaita buvo paskelbta 1 valandą ir 45 minutes, ne 12:00 UTC
Vėjas 14 kt iš Vakarų/Šiaurės Vakarų
Temperatūra 29°C
Drėgmė 23%
Slėgis 1013 hPa
Matomumas: 6000 m

METAR: OJAI 011200Z 30014KT 6000 NSC 29/06 Q1013 NOSIG

Laikas: 16:45 (13:45 UTC)

Prognozė

Ataskaita buvo paskelbta 3 valandos ir 44 minutes, ne 10:01 UTC
Prognozė galioja nuo 01 metu 12 UTC su 02 metu 18 UTC
Vėjas 10 kt iš Vakarų
Matomumas: 5000 m
migla
Tikimybė 40% :
Laikinai
nuo 02 metu 00 UTC su 02 metu 06 UTC
Vėjas 1 kt nuo kintamojo kryptimis
Matomumas: 3000 m
Laikinai
nuo 02 metu 10 UTC su 02 metu 18 UTC
Vėjas 18 kt iš Pietvakarių
Matomumas: 3000 m
Dulkes pustymas

TAF: OJAI 011001Z 0112/0218 28010KT 5000 HZ NSC PROB40 TEMPO 0200/0206 VRB01KT 3000 TEMPO 0210/0218 23018KT 3000 BLDU

Orai ataskaitas ir orų prognozės (METAR, TAF).

turimą stotys yra geltonos ir raudonos taškus žemėlapyje.

Perkelti pele per norėdami pamatyti stoties vardą.

Tada spustelėkite, norėdami matyti oro stebėjimo ir prognozės.

Norėdami pakeisti žemėlapį: spustelėkite ant žalios mygtukų su juodo kryžiaus žemyn,; žalią mygtuką su brūkšneliu, jei norite nutolinti; arba žalių rodyklių gretimoms žemėlapius.


METAR-TAF: